sensor_id;sensor_type;location;lat;lon;timestamp;P1;durP1;ratioP1;P2;durP2;ratioP2
36315;SDS011;22343;50.820;2.666;2023-02-28T00:02:04;8.63;;;6.07;;
36315;SDS011;22343;50.820;2.666;2023-02-28T00:04:49;9.30;;;5.60;;
36315;SDS011;22343;50.820;2.666;2023-02-28T00:07:37;7.53;;;5.70;;
36315;SDS011;22343;50.820;2.666;2023-02-28T00:10:23;7.07;;;5.50;;
36315;SDS011;22343;50.820;2.666;2023-02-28T00:13:08;7.37;;;5.70;;
36315;SDS011;22343;50.820;2.666;2023-02-28T00:16:03;7.93;;;6.20;;
36315;SDS011;22343;50.820;2.666;2023-02-28T00:18:49;6.50;;;5.40;;
36315;SDS011;22343;50.820;2.666;2023-02-28T00:21:33;6.63;;;5.67;;
36315;SDS011;22343;50.820;2.666;2023-02-28T00:24:18;8.50;;;6.20;;
36315;SDS011;22343;50.820;2.666;2023-02-28T00:27:02;7.43;;;6.00;;
36315;SDS011;22343;50.820;2.666;2023-02-28T00:29:47;7.63;;;6.60;;
36315;SDS011;22343;50.820;2.666;2023-02-28T00:32:31;8.10;;;6.47;;
36315;SDS011;22343;50.820;2.666;2023-02-28T00:35:15;7.10;;;6.27;;
36315;SDS011;22343;50.820;2.666;2023-02-28T00:38:00;8.93;;;6.30;;
36315;SDS011;22343;50.820;2.666;2023-02-28T00:40:44;7.33;;;6.63;;
36315;SDS011;22343;50.820;2.666;2023-02-28T00:43:29;8.03;;;6.27;;
36315;SDS011;22343;50.820;2.666;2023-02-28T00:46:13;9.17;;;6.97;;
36315;SDS011;22343;50.820;2.666;2023-02-28T00:48:57;13.47;;;8.93;;
36315;SDS011;22343;50.820;2.666;2023-02-28T00:51:42;8.57;;;6.77;;
36315;SDS011;22343;50.820;2.666;2023-02-28T00:54:26;7.83;;;7.03;;
36315;SDS011;22343;50.820;2.666;2023-02-28T00:57:11;11.00;;;8.13;;
36315;SDS011;22343;50.820;2.666;2023-02-28T00:59:55;11.33;;;8.57;;
36315;SDS011;22343;50.820;2.666;2023-02-28T01:02:39;23.20;;;12.43;;
36315;SDS011;22343;50.820;2.666;2023-02-28T01:05:24;10.20;;;7.93;;
36315;SDS011;22343;50.820;2.666;2023-02-28T01:08:08;8.70;;;7.23;;
36315;SDS011;22343;50.820;2.666;2023-02-28T01:10:52;10.83;;;7.80;;
36315;SDS011;22343;50.820;2.666;2023-02-28T01:13:37;15.73;;;10.10;;
36315;SDS011;22343;50.820;2.666;2023-02-28T01:16:21;22.77;;;13.23;;
36315;SDS011;22343;50.820;2.666;2023-02-28T01:19:05;17.07;;;10.80;;
36315;SDS011;22343;50.820;2.666;2023-02-28T01:21:50;23.70;;;14.70;;
36315;SDS011;22343;50.820;2.666;2023-02-28T01:24:34;26.27;;;15.33;;
36315;SDS011;22343;50.820;2.666;2023-02-28T01:27:18;20.90;;;11.33;;
36315;SDS011;22343;50.820;2.666;2023-02-28T01:30:03;16.33;;;11.20;;
36315;SDS011;22343;50.820;2.666;2023-02-28T01:32:47;19.73;;;12.10;;
36315;SDS011;22343;50.820;2.666;2023-02-28T01:35:33;15.70;;;11.23;;
36315;SDS011;22343;50.820;2.666;2023-02-28T01:38:17;15.60;;;10.60;;
36315;SDS011;22343;50.820;2.666;2023-02-28T01:41:02;30.90;;;18.63;;
36315;SDS011;22343;50.820;2.666;2023-02-28T01:46:32;17.00;;;11.63;;
36315;SDS011;22343;50.820;2.666;2023-02-28T01:49:18;17.23;;;11.77;;
36315;SDS011;22343;50.820;2.666;2023-02-28T01:52:03;19.33;;;12.40;;
36315;SDS011;22343;50.820;2.666;2023-02-28T01:54:50;15.33;;;11.23;;
36315;SDS011;22343;50.820;2.666;2023-02-28T01:57:38;15.60;;;11.37;;
36315;SDS011;22343;50.820;2.666;2023-02-28T02:00:25;15.93;;;10.50;;
36315;SDS011;22343;50.820;2.666;2023-02-28T02:03:14;19.50;;;12.60;;
36315;SDS011;22343;50.820;2.666;2023-02-28T02:06:03;11.97;;;9.10;;
36315;SDS011;22343;50.820;2.666;2023-02-28T02:08:47;12.40;;;9.63;;
36315;SDS011;22343;50.820;2.666;2023-02-28T02:11:31;13.53;;;9.50;;
36315;SDS011;22343;50.820;2.666;2023-02-28T02:17:39;10.27;;;8.73;;
36315;SDS011;22343;50.820;2.666;2023-02-28T02:23:49;13.40;;;8.53;;
36315;SDS011;22343;50.820;2.666;2023-02-28T02:33:36;10.53;;;8.60;;
36315;SDS011;22343;50.820;2.666;2023-02-28T02:36:38;16.90;;;12.07;;
36315;SDS011;22343;50.820;2.666;2023-02-28T02:39:31;12.67;;;9.27;;
36315;SDS011;22343;50.820;2.666;2023-02-28T02:42:47;15.10;;;9.40;;
36315;SDS011;22343;50.820;2.666;2023-02-28T02:45:42;12.07;;;8.83;;
36315;SDS011;22343;50.820;2.666;2023-02-28T02:48:32;13.10;;;9.23;;
36315;SDS011;22343;50.820;2.666;2023-02-28T02:51:18;13.03;;;9.17;;
36315;SDS011;22343;50.820;2.666;2023-02-28T02:54:08;13.47;;;9.33;;
36315;SDS011;22343;50.820;2.666;2023-02-28T02:57:06;14.73;;;10.77;;
36315;SDS011;22343;50.820;2.666;2023-02-28T02:59:53;28.07;;;16.47;;
36315;SDS011;22343;50.820;2.666;2023-02-28T03:02:39;32.40;;;18.67;;
36315;SDS011;22343;50.820;2.666;2023-02-28T03:05:26;18.83;;;12.60;;
36315;SDS011;22343;50.820;2.666;2023-02-28T03:08:15;12.50;;;10.20;;
36315;SDS011;22343;50.820;2.666;2023-02-28T03:11:03;12.93;;;10.13;;
36315;SDS011;22343;50.820;2.666;2023-02-28T03:17:08;13.97;;;10.30;;
36315;SDS011;22343;50.820;2.666;2023-02-28T03:20:05;14.47;;;10.50;;
36315;SDS011;22343;50.820;2.666;2023-02-28T03:26:04;15.50;;;11.43;;
36315;SDS011;22343;50.820;2.666;2023-02-28T03:29:09;18.37;;;12.93;;
36315;SDS011;22343;50.820;2.666;2023-02-28T03:32:16;17.33;;;12.37;;
36315;SDS011;22343;50.820;2.666;2023-02-28T03:38:06;17.07;;;12.70;;
36315;SDS011;22343;50.820;2.666;2023-02-28T03:44:10;17.10;;;12.63;;
36315;SDS011;22343;50.820;2.666;2023-02-28T03:47:05;16.57;;;11.77;;
36315;SDS011;22343;50.820;2.666;2023-02-28T03:49:59;13.50;;;10.53;;
36315;SDS011;22343;50.820;2.666;2023-02-28T03:53:07;15.20;;;11.13;;
36315;SDS011;22343;50.820;2.666;2023-02-28T03:56:16;15.20;;;11.50;;
36315;SDS011;22343;50.820;2.666;2023-02-28T03:59:04;19.87;;;12.80;;
36315;SDS011;22343;50.820;2.666;2023-02-28T04:01:51;16.10;;;12.70;;
36315;SDS011;22343;50.820;2.666;2023-02-28T04:04:36;22.30;;;13.77;;
36315;SDS011;22343;50.820;2.666;2023-02-28T04:07:20;19.13;;;13.83;;
36315;SDS011;22343;50.820;2.666;2023-02-28T04:10:05;19.93;;;15.20;;
36315;SDS011;22343;50.820;2.666;2023-02-28T04:12:49;18.50;;;13.13;;
36315;SDS011;22343;50.820;2.666;2023-02-28T04:15:34;18.80;;;13.47;;
36315;SDS011;22343;50.820;2.666;2023-02-28T04:18:18;19.03;;;13.67;;
36315;SDS011;22343;50.820;2.666;2023-02-28T04:21:02;17.10;;;13.73;;
36315;SDS011;22343;50.820;2.666;2023-02-28T04:23:47;18.90;;;13.10;;
36315;SDS011;22343;50.820;2.666;2023-02-28T04:26:35;18.73;;;12.90;;
36315;SDS011;22343;50.820;2.666;2023-02-28T04:29:25;17.33;;;12.73;;
36315;SDS011;22343;50.820;2.666;2023-02-28T04:32:13;18.60;;;12.87;;
36315;SDS011;22343;50.820;2.666;2023-02-28T04:34:57;20.50;;;15.37;;
36315;SDS011;22343;50.820;2.666;2023-02-28T04:37:41;20.47;;;15.17;;
36315;SDS011;22343;50.820;2.666;2023-02-28T04:40:26;24.40;;;16.63;;
36315;SDS011;22343;50.820;2.666;2023-02-28T04:43:10;19.07;;;14.80;;
36315;SDS011;22343;50.820;2.666;2023-02-28T04:45:55;20.90;;;15.40;;
36315;SDS011;22343;50.820;2.666;2023-02-28T04:48:40;19.00;;;14.30;;
36315;SDS011;22343;50.820;2.666;2023-02-28T04:51:25;19.73;;;15.53;;
36315;SDS011;22343;50.820;2.666;2023-02-28T04:54:09;19.90;;;14.33;;
36315;SDS011;22343;50.820;2.666;2023-02-28T04:56:54;21.70;;;14.73;;
36315;SDS011;22343;50.820;2.666;2023-02-28T04:59:38;19.10;;;14.47;;
36315;SDS011;22343;50.820;2.666;2023-02-28T05:02:23;18.43;;;14.67;;
36315;SDS011;22343;50.820;2.666;2023-02-28T05:05:08;18.67;;;14.63;;
36315;SDS011;22343;50.820;2.666;2023-02-28T05:07:52;18.40;;;14.67;;
36315;SDS011;22343;50.820;2.666;2023-02-28T05:10:39;19.07;;;14.37;;
36315;SDS011;22343;50.820;2.666;2023-02-28T05:13:24;19.43;;;14.93;;
36315;SDS011;22343;50.820;2.666;2023-02-28T05:16:08;34.27;;;22.10;;
36315;SDS011;22343;50.820;2.666;2023-02-28T05:18:53;30.93;;;20.30;;
36315;SDS011;22343;50.820;2.666;2023-02-28T05:21:38;38.97;;;23.93;;
36315;SDS011;22343;50.820;2.666;2023-02-28T05:24:24;20.33;;;16.10;;
36315;SDS011;22343;50.820;2.666;2023-02-28T05:27:09;17.67;;;14.40;;
36315;SDS011;22343;50.820;2.666;2023-02-28T05:29:53;20.17;;;14.70;;
36315;SDS011;22343;50.820;2.666;2023-02-28T05:32:38;19.93;;;14.93;;
36315;SDS011;22343;50.820;2.666;2023-02-28T05:35:22;20.27;;;15.47;;
36315;SDS011;22343;50.820;2.666;2023-02-28T05:38:07;19.80;;;14.63;;
36315;SDS011;22343;50.820;2.666;2023-02-28T05:40:52;18.37;;;15.27;;
36315;SDS011;22343;50.820;2.666;2023-02-28T05:43:37;19.37;;;15.20;;
36315;SDS011;22343;50.820;2.666;2023-02-28T05:46:22;21.57;;;14.73;;
36315;SDS011;22343;50.820;2.666;2023-02-28T05:49:06;20.57;;;15.87;;
36315;SDS011;22343;50.820;2.666;2023-02-28T05:51:50;21.77;;;15.67;;
36315;SDS011;22343;50.820;2.666;2023-02-28T05:54:35;28.73;;;19.10;;
36315;SDS011;22343;50.820;2.666;2023-02-28T05:57:19;34.07;;;24.87;;
36315;SDS011;22343;50.820;2.666;2023-02-28T06:00:04;27.07;;;21.67;;
36315;SDS011;22343;50.820;2.666;2023-02-28T06:02:48;32.13;;;24.30;;
36315;SDS011;22343;50.820;2.666;2023-02-28T06:05:33;32.20;;;25.37;;
36315;SDS011;22343;50.820;2.666;2023-02-28T06:08:17;24.70;;;18.73;;
36315;SDS011;22343;50.820;2.666;2023-02-28T06:11:03;25.83;;;19.77;;
36315;SDS011;22343;50.820;2.666;2023-02-28T06:13:47;22.63;;;17.17;;
36315;SDS011;22343;50.820;2.666;2023-02-28T06:16:33;21.03;;;17.63;;
36315;SDS011;22343;50.820;2.666;2023-02-28T06:19:18;21.30;;;16.03;;
36315;SDS011;22343;50.820;2.666;2023-02-28T06:22:03;24.50;;;18.83;;
36315;SDS011;22343;50.820;2.666;2023-02-28T06:24:47;24.87;;;18.73;;
36315;SDS011;22343;50.820;2.666;2023-02-28T06:27:32;20.63;;;15.73;;
36315;SDS011;22343;50.820;2.666;2023-02-28T06:30:16;17.30;;;14.83;;
36315;SDS011;22343;50.820;2.666;2023-02-28T06:33:01;21.30;;;14.87;;
36315;SDS011;22343;50.820;2.666;2023-02-28T06:35:51;19.23;;;14.67;;
36315;SDS011;22343;50.820;2.666;2023-02-28T06:38:37;17.87;;;14.20;;
36315;SDS011;22343;50.820;2.666;2023-02-28T06:41:23;18.97;;;15.37;;
36315;SDS011;22343;50.820;2.666;2023-02-28T06:44:12;19.83;;;15.67;;
36315;SDS011;22343;50.820;2.666;2023-02-28T06:46:57;19.57;;;15.27;;
36315;SDS011;22343;50.820;2.666;2023-02-28T06:49:42;19.83;;;14.57;;
36315;SDS011;22343;50.820;2.666;2023-02-28T06:52:28;17.63;;;13.03;;
36315;SDS011;22343;50.820;2.666;2023-02-28T06:55:12;20.37;;;14.97;;
36315;SDS011;22343;50.820;2.666;2023-02-28T06:57:57;23.13;;;16.20;;
36315;SDS011;22343;50.820;2.666;2023-02-28T07:00:42;20.63;;;15.30;;
36315;SDS011;22343;50.820;2.666;2023-02-28T07:03:27;20.57;;;14.80;;
36315;SDS011;22343;50.820;2.666;2023-02-28T07:06:12;18.00;;;14.43;;
36315;SDS011;22343;50.820;2.666;2023-02-28T07:08:56;21.33;;;14.60;;
36315;SDS011;22343;50.820;2.666;2023-02-28T07:11:41;20.53;;;15.67;;
36315;SDS011;22343;50.820;2.666;2023-02-28T07:14:26;19.30;;;13.60;;
36315;SDS011;22343;50.820;2.666;2023-02-28T07:17:11;17.10;;;12.57;;
36315;SDS011;22343;50.820;2.666;2023-02-28T07:19:56;16.87;;;13.40;;
36315;SDS011;22343;50.820;2.666;2023-02-28T07:22:40;15.57;;;12.80;;
36315;SDS011;22343;50.820;2.666;2023-02-28T07:25:26;18.20;;;13.00;;
36315;SDS011;22343;50.820;2.666;2023-02-28T07:28:12;17.60;;;13.33;;
36315;SDS011;22343;50.820;2.666;2023-02-28T07:30:57;16.93;;;12.20;;
36315;SDS011;22343;50.820;2.666;2023-02-28T07:33:41;15.60;;;12.33;;
36315;SDS011;22343;50.820;2.666;2023-02-28T07:36:26;14.10;;;10.87;;
36315;SDS011;22343;50.820;2.666;2023-02-28T07:39:10;16.63;;;11.97;;
36315;SDS011;22343;50.820;2.666;2023-02-28T07:41:54;16.00;;;10.93;;
36315;SDS011;22343;50.820;2.666;2023-02-28T07:44:39;15.27;;;10.00;;
36315;SDS011;22343;50.820;2.666;2023-02-28T07:47:24;14.30;;;9.93;;
36315;SDS011;22343;50.820;2.666;2023-02-28T07:50:10;16.03;;;10.80;;
36315;SDS011;22343;50.820;2.666;2023-02-28T07:52:57;16.67;;;11.40;;
36315;SDS011;22343;50.820;2.666;2023-02-28T07:55:42;14.57;;;10.70;;
36315;SDS011;22343;50.820;2.666;2023-02-28T07:58:27;12.53;;;9.63;;
36315;SDS011;22343;50.820;2.666;2023-02-28T08:01:13;11.93;;;10.43;;
36315;SDS011;22343;50.820;2.666;2023-02-28T08:03:58;15.17;;;9.30;;
36315;SDS011;22343;50.820;2.666;2023-02-28T08:06:42;12.30;;;9.23;;
36315;SDS011;22343;50.820;2.666;2023-02-28T08:09:26;17.83;;;11.33;;
36315;SDS011;22343;50.820;2.666;2023-02-28T08:12:11;19.43;;;12.57;;
36315;SDS011;22343;50.820;2.666;2023-02-28T08:14:56;18.80;;;12.37;;
36315;SDS011;22343;50.820;2.666;2023-02-28T08:17:40;15.97;;;10.63;;
36315;SDS011;22343;50.820;2.666;2023-02-28T08:20:25;10.37;;;8.67;;
36315;SDS011;22343;50.820;2.666;2023-02-28T08:23:09;11.80;;;8.97;;
36315;SDS011;22343;50.820;2.666;2023-02-28T08:25:54;12.60;;;9.50;;
36315;SDS011;22343;50.820;2.666;2023-02-28T08:28:39;11.57;;;8.53;;
36315;SDS011;22343;50.820;2.666;2023-02-28T08:31:24;12.23;;;8.80;;
36315;SDS011;22343;50.820;2.666;2023-02-28T08:34:09;11.07;;;8.57;;
36315;SDS011;22343;50.820;2.666;2023-02-28T08:36:54;11.23;;;8.30;;
36315;SDS011;22343;50.820;2.666;2023-02-28T08:39:39;11.50;;;8.80;;
36315;SDS011;22343;50.820;2.666;2023-02-28T08:42:24;10.33;;;7.33;;
36315;SDS011;22343;50.820;2.666;2023-02-28T08:45:08;11.67;;;7.43;;
36315;SDS011;22343;50.820;2.666;2023-02-28T08:47:54;10.27;;;7.37;;
36315;SDS011;22343;50.820;2.666;2023-02-28T08:50:39;10.47;;;7.53;;
36315;SDS011;22343;50.820;2.666;2023-02-28T08:53:23;9.33;;;6.93;;
36315;SDS011;22343;50.820;2.666;2023-02-28T08:56:09;9.57;;;7.57;;
36315;SDS011;22343;50.820;2.666;2023-02-28T08:58:56;11.53;;;8.20;;
36315;SDS011;22343;50.820;2.666;2023-02-28T09:01:41;9.37;;;7.13;;
36315;SDS011;22343;50.820;2.666;2023-02-28T09:04:25;11.93;;;9.53;;
36315;SDS011;22343;50.820;2.666;2023-02-28T09:07:10;12.17;;;9.30;;
36315;SDS011;22343;50.820;2.666;2023-02-28T09:09:54;13.63;;;10.10;;
36315;SDS011;22343;50.820;2.666;2023-02-28T09:12:39;9.63;;;8.10;;
36315;SDS011;22343;50.820;2.666;2023-02-28T09:15:23;9.67;;;7.17;;
36315;SDS011;22343;50.820;2.666;2023-02-28T09:18:07;10.27;;;8.30;;
36315;SDS011;22343;50.820;2.666;2023-02-28T09:20:52;10.37;;;8.07;;
36315;SDS011;22343;50.820;2.666;2023-02-28T09:23:37;9.43;;;5.97;;
36315;SDS011;22343;50.820;2.666;2023-02-28T09:26:23;10.67;;;7.80;;
36315;SDS011;22343;50.820;2.666;2023-02-28T09:29:09;8.70;;;6.20;;
36315;SDS011;22343;50.820;2.666;2023-02-28T09:31:54;10.10;;;8.50;;
36315;SDS011;22343;50.820;2.666;2023-02-28T09:34:40;10.73;;;8.10;;
36315;SDS011;22343;50.820;2.666;2023-02-28T09:37:25;13.07;;;8.37;;
36315;SDS011;22343;50.820;2.666;2023-02-28T09:40:13;11.47;;;8.17;;
36315;SDS011;22343;50.820;2.666;2023-02-28T09:42:59;11.83;;;9.03;;
36315;SDS011;22343;50.820;2.666;2023-02-28T09:45:47;14.10;;;10.10;;
36315;SDS011;22343;50.820;2.666;2023-02-28T09:48:35;24.53;;;16.47;;
36315;SDS011;22343;50.820;2.666;2023-02-28T09:54:39;16.63;;;11.43;;
36315;SDS011;22343;50.820;2.666;2023-02-28T09:57:36;12.90;;;10.57;;
36315;SDS011;22343;50.820;2.666;2023-02-28T10:00:39;9.53;;;7.10;;
36315;SDS011;22343;50.820;2.666;2023-02-28T10:03:30;6.50;;;5.30;;
36315;SDS011;22343;50.820;2.666;2023-02-28T10:06:21;7.80;;;5.60;;
36315;SDS011;22343;50.820;2.666;2023-02-28T10:09:14;9.03;;;6.27;;
36315;SDS011;22343;50.820;2.666;2023-02-28T10:12:04;8.23;;;6.60;;
36315;SDS011;22343;50.820;2.666;2023-02-28T10:14:51;8.40;;;6.03;;
36315;SDS011;22343;50.820;2.666;2023-02-28T10:17:38;33.53;;;18.20;;
36315;SDS011;22343;50.820;2.666;2023-02-28T10:20:26;19.47;;;13.87;;
36315;SDS011;22343;50.820;2.666;2023-02-28T10:26:20;7.23;;;6.23;;
36315;SDS011;22343;50.820;2.666;2023-02-28T10:29:04;6.33;;;5.10;;
36315;SDS011;22343;50.820;2.666;2023-02-28T10:31:52;8.73;;;6.03;;
36315;SDS011;22343;50.820;2.666;2023-02-28T10:34:36;9.10;;;7.80;;
36315;SDS011;22343;50.820;2.666;2023-02-28T10:37:20;9.60;;;7.80;;
36315;SDS011;22343;50.820;2.666;2023-02-28T10:40:07;17.73;;;12.97;;
36315;SDS011;22343;50.820;2.666;2023-02-28T10:43:18;12.10;;;10.30;;
36315;SDS011;22343;50.820;2.666;2023-02-28T10:49:23;9.97;;;7.10;;
36315;SDS011;22343;50.820;2.666;2023-02-28T10:52:10;8.90;;;7.73;;
36315;SDS011;22343;50.820;2.666;2023-02-28T10:55:13;9.63;;;6.93;;
36315;SDS011;22343;50.820;2.666;2023-02-28T11:01:37;7.27;;;6.53;;
36315;SDS011;22343;50.820;2.666;2023-02-28T11:07:32;6.70;;;4.27;;
36315;SDS011;22343;50.820;2.666;2023-02-28T11:10:18;7.73;;;5.00;;
36315;SDS011;22343;50.820;2.666;2023-02-28T11:13:05;9.70;;;6.60;;
36315;SDS011;22343;50.820;2.666;2023-02-28T11:15:54;9.90;;;7.13;;
36315;SDS011;22343;50.820;2.666;2023-02-28T11:18:54;5.83;;;4.70;;
36315;SDS011;22343;50.820;2.666;2023-02-28T11:21:40;9.30;;;6.27;;
36315;SDS011;22343;50.820;2.666;2023-02-28T11:24:42;8.23;;;5.87;;
36315;SDS011;22343;50.820;2.666;2023-02-28T11:27:43;8.43;;;6.10;;
36315;SDS011;22343;50.820;2.666;2023-02-28T11:33:28;8.83;;;6.00;;
36315;SDS011;22343;50.820;2.666;2023-02-28T11:36:35;6.40;;;5.17;;
36315;SDS011;22343;50.820;2.666;2023-02-28T11:39:18;15.83;;;9.87;;
36315;SDS011;22343;50.820;2.666;2023-02-28T11:48:17;12.27;;;7.90;;
36315;SDS011;22343;50.820;2.666;2023-02-28T11:54:21;13.77;;;9.07;;
36315;SDS011;22343;50.820;2.666;2023-02-28T12:03:43;6.87;;;5.97;;
36315;SDS011;22343;50.820;2.666;2023-02-28T12:06:33;7.57;;;5.30;;
36315;SDS011;22343;50.820;2.666;2023-02-28T12:12:38;9.90;;;6.03;;
36315;SDS011;22343;50.820;2.666;2023-02-28T12:25:18;10.17;;;7.00;;
36315;SDS011;22343;50.820;2.666;2023-02-28T12:28:07;6.07;;;5.50;;
36315;SDS011;22343;50.820;2.666;2023-02-28T12:30:56;7.17;;;5.60;;
36315;SDS011;22343;50.820;2.666;2023-02-28T12:33:48;7.60;;;5.23;;
36315;SDS011;22343;50.820;2.666;2023-02-28T12:36:36;5.33;;;4.70;;
36315;SDS011;22343;50.820;2.666;2023-02-28T12:42:22;7.53;;;5.47;;
36315;SDS011;22343;50.820;2.666;2023-02-28T12:45:18;7.10;;;4.80;;
36315;SDS011;22343;50.820;2.666;2023-02-28T12:48:05;7.57;;;5.40;;
36315;SDS011;22343;50.820;2.666;2023-02-28T12:50:53;4.47;;;3.90;;
36315;SDS011;22343;50.820;2.666;2023-02-28T13:06:02;5.77;;;4.33;;
36315;SDS011;22343;50.820;2.666;2023-02-28T13:08:59;8.33;;;6.10;;
36315;SDS011;22343;50.820;2.666;2023-02-28T13:11:53;6.47;;;4.70;;
36315;SDS011;22343;50.820;2.666;2023-02-28T13:14:39;6.83;;;5.30;;
36315;SDS011;22343;50.820;2.666;2023-02-28T13:17:27;6.47;;;5.13;;
36315;SDS011;22343;50.820;2.666;2023-02-28T13:20:17;6.33;;;5.43;;
36315;SDS011;22343;50.820;2.666;2023-02-28T13:23:05;8.50;;;6.50;;
36315;SDS011;22343;50.820;2.666;2023-02-28T13:29:35;6.93;;;5.53;;
36315;SDS011;22343;50.820;2.666;2023-02-28T13:32:34;6.07;;;4.70;;
36315;SDS011;22343;50.820;2.666;2023-02-28T13:35:34;6.83;;;5.97;;
36315;SDS011;22343;50.820;2.666;2023-02-28T13:38:22;5.20;;;4.27;;
36315;SDS011;22343;50.820;2.666;2023-02-28T13:44:15;6.53;;;5.23;;
36315;SDS011;22343;50.820;2.666;2023-02-28T13:49:46;6.80;;;4.87;;
36315;SDS011;22343;50.820;2.666;2023-02-28T13:52:30;8.90;;;6.27;;
36315;SDS011;22343;50.820;2.666;2023-02-28T13:58:55;7.37;;;5.60;;
36315;SDS011;22343;50.820;2.666;2023-02-28T14:01:43;8.53;;;6.27;;
36315;SDS011;22343;50.820;2.666;2023-02-28T14:04:59;8.03;;;6.13;;
36315;SDS011;22343;50.820;2.666;2023-02-28T14:07:57;8.07;;;6.23;;
36315;SDS011;22343;50.820;2.666;2023-02-28T14:10:43;9.30;;;6.73;;
36315;SDS011;22343;50.820;2.666;2023-02-28T14:13:40;6.10;;;5.47;;
36315;SDS011;22343;50.820;2.666;2023-02-28T14:16:40;8.83;;;6.80;;
36315;SDS011;22343;50.820;2.666;2023-02-28T14:19:28;10.73;;;6.30;;
36315;SDS011;22343;50.820;2.666;2023-02-28T14:28:18;6.87;;;6.17;;
36315;SDS011;22343;50.820;2.666;2023-02-28T14:31:18;7.57;;;6.47;;
36315;SDS011;22343;50.820;2.666;2023-02-28T14:34:26;7.43;;;5.73;;
36315;SDS011;22343;50.820;2.666;2023-02-28T14:37:37;6.73;;;5.90;;
36315;SDS011;22343;50.820;2.666;2023-02-28T14:40:33;7.03;;;5.90;;
36315;SDS011;22343;50.820;2.666;2023-02-28T14:43:20;7.80;;;5.97;;
36315;SDS011;22343;50.820;2.666;2023-02-28T14:46:11;6.27;;;5.67;;
36315;SDS011;22343;50.820;2.666;2023-02-28T14:48:56;5.33;;;4.40;;
36315;SDS011;22343;50.820;2.666;2023-02-28T14:51:40;7.00;;;6.33;;
36315;SDS011;22343;50.820;2.666;2023-02-28T14:54:25;6.47;;;5.80;;
36315;SDS011;22343;50.820;2.666;2023-02-28T15:03:23;5.30;;;4.80;;
36315;SDS011;22343;50.820;2.666;2023-02-28T15:06:21;7.20;;;5.50;;
36315;SDS011;22343;50.820;2.666;2023-02-28T15:09:17;6.93;;;6.20;;
36315;SDS011;22343;50.820;2.666;2023-02-28T15:12:02;6.70;;;6.00;;
36315;SDS011;22343;50.820;2.666;2023-02-28T15:14:47;8.07;;;6.30;;
36315;SDS011;22343;50.820;2.666;2023-02-28T15:17:31;8.43;;;5.27;;
36315;SDS011;22343;50.820;2.666;2023-02-28T15:20:16;5.87;;;3.97;;
36315;SDS011;22343;50.820;2.666;2023-02-28T15:23:02;4.97;;;4.47;;
36315;SDS011;22343;50.820;2.666;2023-02-28T15:25:46;6.43;;;4.63;;
36315;SDS011;22343;50.820;2.666;2023-02-28T15:28:31;7.07;;;5.07;;
36315;SDS011;22343;50.820;2.666;2023-02-28T15:31:35;6.67;;;5.27;;
36315;SDS011;22343;50.820;2.666;2023-02-28T15:34:35;5.00;;;4.47;;
36315;SDS011;22343;50.820;2.666;2023-02-28T15:37:44;5.33;;;4.67;;
36315;SDS011;22343;50.820;2.666;2023-02-28T15:40:36;5.93;;;4.10;;
36315;SDS011;22343;50.820;2.666;2023-02-28T15:43:38;4.70;;;4.20;;
36315;SDS011;22343;50.820;2.666;2023-02-28T15:46:23;6.83;;;4.63;;
36315;SDS011;22343;50.820;2.666;2023-02-28T15:49:17;4.17;;;3.60;;
36315;SDS011;22343;50.820;2.666;2023-02-28T15:52:03;7.40;;;4.43;;
36315;SDS011;22343;50.820;2.666;2023-02-28T15:54:47;4.93;;;3.77;;
36315;SDS011;22343;50.820;2.666;2023-02-28T15:57:32;4.63;;;3.50;;
36315;SDS011;22343;50.820;2.666;2023-02-28T16:00:24;6.93;;;4.70;;
36315;SDS011;22343;50.820;2.666;2023-02-28T16:03:22;5.37;;;4.17;;
36315;SDS011;22343;50.820;2.666;2023-02-28T16:09:12;33.10;;;16.07;;
36315;SDS011;22343;50.820;2.666;2023-02-28T16:12:02;44.00;;;22.10;;
36315;SDS011;22343;50.820;2.666;2023-02-28T16:14:50;19.40;;;14.70;;
36315;SDS011;22343;50.820;2.666;2023-02-28T16:17:38;7.20;;;6.50;;
36315;SDS011;22343;50.820;2.666;2023-02-28T16:20:27;7.70;;;5.50;;
36315;SDS011;22343;50.820;2.666;2023-02-28T16:23:13;4.83;;;4.10;;
36315;SDS011;22343;50.820;2.666;2023-02-28T16:25:57;7.00;;;5.20;;
36315;SDS011;22343;50.820;2.666;2023-02-28T16:28:42;7.60;;;5.70;;
36315;SDS011;22343;50.820;2.666;2023-02-28T16:31:27;5.97;;;5.20;;
36315;SDS011;22343;50.820;2.666;2023-02-28T16:34:14;6.30;;;4.70;;
36315;SDS011;22343;50.820;2.666;2023-02-28T16:37:03;6.00;;;4.97;;
36315;SDS011;22343;50.820;2.666;2023-02-28T16:39:49;6.97;;;5.00;;
36315;SDS011;22343;50.820;2.666;2023-02-28T16:42:36;5.17;;;4.67;;
36315;SDS011;22343;50.820;2.666;2023-02-28T16:45:24;5.37;;;4.87;;
36315;SDS011;22343;50.820;2.666;2023-02-28T16:48:14;5.33;;;4.70;;
36315;SDS011;22343;50.820;2.666;2023-02-28T16:51:01;5.67;;;5.07;;
36315;SDS011;22343;50.820;2.666;2023-02-28T16:53:48;5.83;;;5.07;;
36315;SDS011;22343;50.820;2.666;2023-02-28T16:56:34;5.90;;;5.30;;
36315;SDS011;22343;50.820;2.666;2023-02-28T16:59:19;7.20;;;5.43;;
36315;SDS011;22343;50.820;2.666;2023-02-28T17:02:12;6.17;;;5.57;;
36315;SDS011;22343;50.820;2.666;2023-02-28T17:04:59;6.90;;;6.20;;
36315;SDS011;22343;50.820;2.666;2023-02-28T17:07:44;7.03;;;6.30;;
36315;SDS011;22343;50.820;2.666;2023-02-28T17:10:29;6.93;;;6.20;;
36315;SDS011;22343;50.820;2.666;2023-02-28T17:13:13;8.57;;;7.67;;
36315;SDS011;22343;50.820;2.666;2023-02-28T17:15:58;8.33;;;7.30;;
36315;SDS011;22343;50.820;2.666;2023-02-28T17:18:42;8.50;;;7.23;;
36315;SDS011;22343;50.820;2.666;2023-02-28T17:21:27;9.93;;;7.30;;
36315;SDS011;22343;50.820;2.666;2023-02-28T17:24:11;8.73;;;6.53;;
36315;SDS011;22343;50.820;2.666;2023-02-28T17:26:56;8.80;;;6.30;;
36315;SDS011;22343;50.820;2.666;2023-02-28T17:29:40;8.33;;;7.37;;
36315;SDS011;22343;50.820;2.666;2023-02-28T17:32:26;8.33;;;7.47;;
36315;SDS011;22343;50.820;2.666;2023-02-28T17:35:12;10.67;;;8.30;;
36315;SDS011;22343;50.820;2.666;2023-02-28T17:37:58;9.90;;;8.90;;
36315;SDS011;22343;50.820;2.666;2023-02-28T17:40:44;11.03;;;9.23;;
36315;SDS011;22343;50.820;2.666;2023-02-28T17:43:28;9.97;;;7.57;;
36315;SDS011;22343;50.820;2.666;2023-02-28T17:46:16;9.63;;;7.90;;
36315;SDS011;22343;50.820;2.666;2023-02-28T17:49:05;10.50;;;8.30;;
36315;SDS011;22343;50.820;2.666;2023-02-28T17:51:50;17.97;;;11.97;;
36315;SDS011;22343;50.820;2.666;2023-02-28T17:54:36;30.20;;;20.47;;
36315;SDS011;22343;50.820;2.666;2023-02-28T17:57:22;22.03;;;16.40;;
36315;SDS011;22343;50.820;2.666;2023-02-28T18:00:07;22.47;;;18.30;;
36315;SDS011;22343;50.820;2.666;2023-02-28T18:02:52;22.30;;;17.63;;
36315;SDS011;22343;50.820;2.666;2023-02-28T18:05:39;22.20;;;17.87;;
36315;SDS011;22343;50.820;2.666;2023-02-28T18:08:25;22.23;;;17.10;;
36315;SDS011;22343;50.820;2.666;2023-02-28T18:11:11;15.23;;;11.70;;
36315;SDS011;22343;50.820;2.666;2023-02-28T18:14:01;22.27;;;18.33;;
36315;SDS011;22343;50.820;2.666;2023-02-28T18:16:47;14.53;;;12.13;;
36315;SDS011;22343;50.820;2.666;2023-02-28T18:19:31;15.77;;;12.70;;
36315;SDS011;22343;50.820;2.666;2023-02-28T18:22:17;13.13;;;10.43;;
36315;SDS011;22343;50.820;2.666;2023-02-28T18:25:02;13.97;;;10.20;;
36315;SDS011;22343;50.820;2.666;2023-02-28T18:27:49;12.67;;;9.97;;
36315;SDS011;22343;50.820;2.666;2023-02-28T18:30:43;16.47;;;11.17;;
36315;SDS011;22343;50.820;2.666;2023-02-28T18:33:28;44.33;;;27.70;;
36315;SDS011;22343;50.820;2.666;2023-02-28T18:36:14;98.17;;;48.70;;